Terminal Aerodrome Forecast
Issued by NWS

Home | Current Version | Previous Version | Text Only | Print | Product List | Glossary On
Versions: 1 2 3 4 5 6 7 8 9 10 11 12 13 14
000
FTUS44 KLIX 210520
TAFHUM
TAF
KHUM 210520Z 2106/2206 20003KT P6SM SCT050
     FM211700 06005KT P6SM SCT110
     FM211900 13005KT P6SM BKN040 PROB30 2119/2123 4SM -TSRA
      OVC040CB
     FM212300 19006KT P6SM SCT110=

USA.gov is the U.S. government's official web portal to all federal, state and local government web resources and services.